Time;durP1;ratioP1;P1;durP2;ratioP2;P2;SDS_P1;SDS_P2;PMS_P1;PMS_P2;Temp;Humidity;BMP_temperature;BMP_pressure;BME280_temperature;BME280_humidity;BME280_pressure;Samples;Min_cycle;Max_cycle;Signal;HPM_P1;HPM_P2
2021/06/07 00:00:58;;;;;;;89.20;42.57;;;;;;;12.97;95.42;96068.19;5011578;28;20229;-74
2021/06/07 00:03:24;;;;;;;85.80;42.73;;;;;;;12.96;95.32;96069.97;5011756;28;20186;-75
2021/06/07 00:05:49;;;;;;;80.47;40.27;;;;;;;13.00;95.37;96073.94;5009531;28;20583;-74
2021/06/07 00:08:15;;;;;;;78.03;41.47;;;;;;;12.99;95.42;96063.66;5010718;28;20559;-75
2021/06/07 00:10:40;;;;;;;78.60;41.13;;;;;;;12.99;95.31;96071.47;5011294;28;20241;-75
2021/06/07 00:13:06;;;;;;;87.77;43.63;;;;;;;12.99;95.46;96071.47;5011317;28;20534;-75
2021/06/07 00:15:33;;;;;;;94.20;44.13;;;;;;;12.95;95.48;96067.50;4993727;28;20746;-74
2021/06/07 00:17:59;;;;;;;94.43;45.80;;;;;;;12.95;95.36;96072.72;5012695;28;20198;-75
2021/06/07 00:20:45;;;;;;;88.70;43.87;;;;;;;12.95;95.58;96065.72;5011117;28;20657;-75
2021/06/07 00:23:11;;;;;;;89.13;44.10;;;;;;;12.97;95.31;96068.19;5012665;28;20189;-75
2021/06/07 00:25:38;;;;;;;92.43;43.83;;;;;;;12.95;95.40;96065.72;4993626;28;20289;-75
2021/06/07 00:28:03;;;;;;;86.10;44.17;;;;;;;12.96;95.13;96067.34;5011166;28;20183;-75
2021/06/07 00:30:29;;;;;;;78.83;40.90;;;;;;;13.00;94.92;96066.09;5011074;28;20186;-75
2021/06/07 00:32:54;;;;;;;86.67;42.10;;;;;;;12.99;95.12;96063.66;5011239;28;20257;-74
2021/06/07 00:35:21;;;;;;;88.40;43.07;;;;;;;12.93;95.00;96070.28;4993652;28;20211;-75
2021/06/07 00:37:47;;;;;;;88.00;43.23;;;;;;;12.94;95.18;96060.66;5011032;28;20206;-75
2021/06/07 00:40:12;;;;;;;96.27;43.63;;;;;;;12.93;94.98;96072.06;5010698;28;20587;-75
2021/06/07 00:42:38;;;;;;;90.30;42.97;;;;;;;12.91;95.24;96067.00;5010795;28;20755;-75
2021/06/07 00:45:08;;;;;;;90.40;42.23;;;;;;;12.91;95.27;96068.78;5010936;28;20203;-74
2021/06/07 00:47:34;;;;;;;91.70;43.93;;;;;;;12.91;95.45;96066.19;5009629;28;20292;-75
2021/06/07 00:49:59;;;;;;;80.90;40.87;;;;;;;12.94;95.33;96065.88;5010567;28;20217;-74
2021/06/07 00:52:25;;;;;;;84.53;42.17;;;;;;;12.94;95.10;96052.84;5011955;28;20545;-75
2021/06/07 00:54:50;;;;;;;86.33;41.53;;;;;;;12.94;95.30;96058.06;5010768;28;20199;-75
2021/06/07 00:57:16;;;;;;;87.73;44.00;;;;;;;12.92;94.98;96054.78;5008660;28;20183;-76
2021/06/07 00:59:41;;;;;;;93.83;43.50;;;;;;;12.91;95.25;96053.97;4994317;28;20278;-75
2021/06/07 01:02:06;;;;;;;98.97;43.07;;;;;;;12.91;95.18;96051.38;5010372;28;20610;-76
2021/06/07 01:04:32;;;;;;;127.63;43.17;;;;;;;12.86;95.15;96060.59;5010612;28;20206;-75
2021/06/07 01:06:57;;;;;;;85.57;40.43;;;;;;;12.89;95.25;96055.06;5009564;28;20178;-75
2021/06/07 01:09:22;;;;;;;89.40;42.53;;;;;;;12.87;95.19;96057.81;5010474;28;20181;-76
2021/06/07 01:11:48;;;;;;;88.53;43.13;;;;;;;12.87;95.42;96049.19;4993972;28;20198;-75
2021/06/07 01:14:13;;;;;;;131.07;43.87;;;;;;;12.83;95.16;96055.69;5010650;28;20202;-76
2021/06/07 01:16:38;;;;;;;143.33;44.17;;;;;;;12.86;95.41;96050.16;5010597;28;20257;-76
2021/06/07 01:19:05;;;;;;;87.80;42.63;;;;;;;12.80;95.62;96056.78;4993143;28;20290;-75
2021/06/07 01:21:31;;;;;;;88.37;43.63;;;;;;;12.85;95.65;96053.75;5010230;28;20282;-76
2021/06/07 01:23:57;;;;;;;93.47;43.00;;;;;;;12.85;95.33;96048.53;4994007;28;20290;-75
2021/06/07 01:26:24;;;;;;;84.63;42.30;;;;;;;12.89;95.23;96044.63;5010510;28;20544;-76
2021/06/07 01:28:50;;;;;;;93.83;43.43;;;;;;;12.85;95.04;96038.09;4993122;28;20770;-75
2021/06/07 01:31:17;;;;;;;94.37;43.87;;;;;;;12.79;95.20;96043.91;5009941;28;20278;-75
2021/06/07 01:33:46;;;;;;;87.90;41.43;;;;;;;12.81;95.39;96048.00;4993824;28;20183;-75
2021/06/07 01:36:11;;;;;;;84.50;40.97;;;;;;;12.82;95.31;96044.44;5010200;28;20226;-75
2021/06/07 01:38:37;;;;;;;85.50;41.37;;;;;;;12.81;95.16;96041.97;4992928;28;20544;-76
2021/06/07 01:41:07;;;;;;;86.23;42.13;;;;;;;12.83;95.19;96034.84;5010188;28;20269;-76
2021/06/07 01:43:33;;;;;;;99.23;44.57;;;;;;;12.81;95.24;96023.72;4994362;28;20179;-75
2021/06/07 01:45:59;;;;;;;96.47;43.57;;;;;;;12.74;95.41;96026.94;5010192;28;20191;-75
2021/06/07 01:48:25;;;;;;;100.40;44.17;;;;;;;12.73;95.30;96027.91;5007698;28;20179;-76
2021/06/07 01:50:52;;;;;;;96.83;43.30;;;;;;;12.80;95.41;96022.06;5011040;28;20716;-75
2021/06/07 01:53:19;;;;;;;99.73;44.10;;;;;;;12.77;95.38;96021.41;5014933;28;20178;-75
2021/06/07 01:55:47;;;;;;;99.17;45.17;;;;;;;12.76;95.58;96024.19;5014041;28;20205;-76
2021/06/07 01:58:15;;;;;;;89.93;43.47;;;;;;;12.75;95.46;96022.53;5012925;28;20180;-75
2021/06/07 02:00:44;;;;;;;128.63;46.57;;;;;;;12.73;95.53;96020.09;5013639;28;20187;-75
2021/06/07 02:03:10;;;;;;;193.67;48.50;;;;;;;12.73;95.24;96017.47;5013932;28;20183;-75
2021/06/07 02:05:38;;;;;;;109.93;44.70;;;;;;;12.70;95.29;96012.56;5015119;28;20198;-74
2021/06/07 02:08:06;;;;;;;112.87;43.03;;;;;;;12.69;95.54;96018.72;4997749;28;20550;-75
2021/06/07 02:10:36;;;;;;;111.47;45.80;;;;;;;12.68;95.89;96008.47;5011937;28;20183;-76
2021/06/07 02:13:02;;;;;;;145.73;47.27;;;;;;;12.70;95.51;96016.94;5013553;28;20188;-75
2021/06/07 02:15:27;;;;;;;107.57;45.63;;;;;;;12.66;95.67;96019.03;5013642;28;20219;-76
2021/06/07 02:17:52;;;;;;;126.13;44.23;;;;;;;12.68;95.64;96017.09;4997359;28;20279;-75
2021/06/07 02:20:21;;;;;;;92.27;43.27;;;;;;;12.73;95.11;96009.66;5012682;28;20187;-74
2021/06/07 02:22:47;;;;;;;229.10;48.40;;;;;;;12.64;96.10;96004.53;5014703;28;20630;-76
2021/06/07 02:25:18;;;;;;;95.10;44.30;;;;;;;12.67;95.82;96017.25;5013544;28;20218;-75
2021/06/07 02:27:44;;;;;;;110.87;46.43;;;;;;;12.66;95.67;96008.63;5013461;28;20183;-75
2021/06/07 02:30:16;;;;;;;107.87;45.80;;;;;;;12.66;95.78;96000.81;5011828;28;20187;-76
2021/06/07 02:32:42;;;;;;;115.10;46.27;;;;;;;12.72;95.50;96007.19;5012270;28;20289;-76
2021/06/07 02:35:11;;;;;;;95.07;45.33;;;;;;;12.74;95.32;96018.31;5014348;28;20299;-76
2021/06/07 02:37:36;;;;;;;108.40;46.83;;;;;;;12.68;95.29;96021.50;5013286;28;20578;-75
2021/06/07 02:40:04;;;;;;;188.70;47.50;;;;;;;12.65;95.50;96017.41;5013190;28;20190;-76
2021/06/07 02:42:29;;;;;;;101.27;45.00;;;;;;;12.69;95.46;96021.34;5012960;28;20628;-76
2021/06/07 02:44:56;;;;;;;170.17;48.57;;;;;;;12.65;95.63;96021.81;5014338;28;20195;-76
2021/06/07 02:47:21;;;;;;;102.27;43.20;;;;;;;12.70;95.53;96027.38;5013250;28;20179;-75
2021/06/07 02:49:46;;;;;;;174.40;47.37;;;;;;;12.64;95.63;96020.16;5014446;28;20654;-76
2021/06/07 02:52:12;;;;;;;105.47;47.07;;;;;;;12.64;95.70;96020.16;5009967;28;20257;-76
2021/06/07 02:54:37;;;;;;;104.20;46.17;;;;;;;12.62;95.56;96020.28;5013012;28;20261;-76
2021/06/07 02:57:04;;;;;;;108.57;46.87;;;;;;;12.60;95.78;96019.63;5012975;28;20576;-76
2021/06/07 02:59:29;;;;;;;113.80;46.60;;;;;;;12.60;95.91;96019.63;5012947;28;20188;-75
2021/06/07 03:01:54;;;;;;;141.20;48.17;;;;;;;12.63;95.66;96018.50;5014021;28;20187;-76
2021/06/07 03:04:19;;;;;;;118.73;47.00;;;;;;;12.59;95.57;96015.38;5012756;28;20209;-76
2021/06/07 03:06:45;;;;;;;112.83;47.70;;;;;;;12.58;95.92;96007.72;5012556;28;20179;-76
2021/06/07 03:09:10;;;;;;;119.63;47.27;;;;;;;12.60;95.77;96018.81;5012802;28;20183;-76
2021/06/07 03:11:36;;;;;;;106.97;43.07;;;;;;;12.64;95.68;96018.38;5011621;28;20191;-75
2021/06/07 03:14:01;;;;;;;137.37;48.50;;;;;;;12.58;95.61;96018.97;5013775;28;20202;-76
2021/06/07 03:16:27;;;;;;;113.47;48.10;;;;;;;12.56;95.95;96018.31;5012604;28;20199;-76
2021/06/07 03:18:52;;;;;;;114.63;48.40;;;;;;;12.58;95.74;96020.75;5013771;28;20278;-76
2021/06/07 03:21:17;;;;;;;107.87;47.67;;;;;;;12.62;95.77;96022.91;5011376;28;20206;-75
2021/06/07 03:23:44;;;;;;;127.27;48.43;;;;;;;12.57;95.99;96027.75;4995946;28;20187;-76
2021/06/07 03:26:10;;;;;;;112.60;47.90;;;;;;;12.56;95.95;96026.13;5012523;28;20175;-76
2021/06/07 03:28:37;;;;;;;255.73;53.03;;;;;;;12.52;95.93;96029.97;4995958;28;20282;-76
2021/06/07 03:31:03;;;;;;;115.07;50.27;;;;;;;12.56;96.18;96033.13;5012135;28;20603;-76
2021/06/07 03:33:29;;;;;;;122.97;48.60;;;;;;;12.58;96.27;96028.56;4995181;28;20187;-75
2021/06/07 03:35:56;;;;;;;131.67;48.70;;;;;;;12.58;95.91;96031.16;5011918;28;20701;-75
2021/06/07 03:38:22;;;;;;;102.50;45.03;;;;;;;12.56;95.88;96028.72;5013400;28;20229;-76
2021/06/07 03:40:51;;;;;;;150.80;48.53;;;;;;;12.56;96.02;96028.72;5012027;28;20266;-76
2021/06/07 03:43:17;;;;;;;133.27;47.77;;;;;;;12.54;96.04;96029.81;5010861;28;20209;-76
2021/06/07 03:45:43;;;;;;;160.90;47.63;;;;;;;12.54;96.21;96028.03;5011984;28;20221;-76
2021/06/07 03:48:08;;;;;;;106.17;45.93;;;;;;;12.56;96.16;96023.50;4995711;28;20270;-76
2021/06/07 03:50:35;;;;;;;89.13;44.17;;;;;;;12.55;96.25;96024.47;5012744;28;20184;-76
2021/06/07 03:53:00;;;;;;;95.30;42.47;;;;;;;12.56;96.11;96028.72;5011018;28;20307;-76
2021/06/07 03:55:26;;;;;;;92.37;42.47;;;;;;;12.59;96.26;96023.19;5012857;28;20199;-76
2021/06/07 03:57:53;;;;;;;89.07;42.97;;;;;;;12.57;96.13;96019.94;5011922;28;20185;-76
2021/06/07 04:00:22;;;;;;;92.37;41.10;;;;;;;12.56;96.03;96020.09;5011646;28;20621;-76
2021/06/07 04:02:47;;;;;;;105.10;41.23;;;;;;;12.58;96.18;96023.34;5011759;28;20183;-75
2021/06/07 04:05:14;;;;;;;73.73;39.60;;;;;;;12.60;96.07;96024.84;5010585;28;20257;-76
2021/06/07 04:07:40;;;;;;;75.80;39.37;;;;;;;12.60;95.94;96027.44;5011634;28;20647;-76
2021/06/07 04:10:08;;;;;;;147.43;42.03;;;;;;;12.57;95.85;96027.75;5011623;28;20205;-75
2021/06/07 04:12:34;;;;;;;88.90;42.10;;;;;;;12.56;96.21;96020.91;5011457;28;20172;-76
2021/06/07 04:14:59;;;;;;;241.43;46.73;;;;;;;12.56;96.12;96023.50;5009944;28;20215;-76
2021/06/07 04:17:24;;;;;;;111.37;39.17;;;;;;;12.58;96.09;96020.75;5011452;28;20195;-76
2021/06/07 04:19:50;;;;;;;85.47;37.83;;;;;;;12.59;95.93;96023.19;5011438;28;20279;-75
2021/06/07 04:22:15;;;;;;;122.50;37.00;;;;;;;12.60;96.00;96022.22;5011267;28;20186;-76
2021/06/07 04:24:42;;;;;;;92.90;36.53;;;;;;;12.55;96.03;96021.06;5010369;28;20199;-76
2021/06/07 04:27:09;;;;;;;65.57;35.70;;;;;;;12.59;96.16;96020.59;5011193;28;20186;-76
2021/06/07 04:29:35;;;;;;;60.53;33.43;;;;;;;12.61;96.17;96023.06;5011272;28;20175;-76
2021/06/07 04:32:00;;;;;;;111.87;31.63;;;;;;;12.62;95.82;96025.50;5012115;28;20198;-76
2021/06/07 04:34:25;;;;;;;52.80;30.13;;;;;;;12.61;96.14;96021.25;5011220;28;20207;-76
2021/06/07 04:36:51;;;;;;;58.13;31.07;;;;;;;12.64;96.17;96026.19;5008895;28;20223;-75
2021/06/07 04:39:16;;;;;;;107.40;31.60;;;;;;;12.64;96.12;96020.97;4994961;28;20183;-76
2021/06/07 04:41:41;;;;;;;56.10;28.70;;;;;;;12.66;96.01;96029.47;5010960;28;20261;-76
2021/06/07 04:44:06;;;;;;;44.97;25.73;;;;;;;12.67;96.04;96017.25;5010940;28;20560;-76
2021/06/07 04:46:32;;;;;;;48.67;27.30;;;;;;;12.65;96.22;96027.84;5009739;28;20516;-76
2021/06/07 04:48:58;;;;;;;82.03;27.23;;;;;;;12.72;96.01;96018.47;5010877;28;20190;-76
2021/06/07 04:51:23;;;;;;;85.23;27.10;;;;;;;12.70;95.83;96022.97;5011858;28;20183;-76
2021/06/07 04:53:48;;;;;;;41.47;25.20;;;;;;;12.70;95.84;96014.34;5010800;28;20216;-76
2021/06/07 04:56:14;;;;;;;69.33;27.40;;;;;;;12.70;95.93;96024.75;5012036;28;20191;-76
2021/06/07 04:58:39;;;;;;;56.73;26.80;;;;;;;12.71;96.13;96019.41;5008372;28;20218;-76
2021/06/07 05:01:07;;;;;;;85.10;28.00;;;;;;;12.74;95.98;96010.47;4994167;28;20737;-76
2021/06/07 05:03:33;;;;;;;50.60;26.40;;;;;;;12.74;96.29;96013.91;4994318;28;20183;-76
2021/06/07 05:05:59;;;;;;;41.70;24.47;;;;;;;12.76;96.01;96014.56;4994499;28;20238;-78
2021/06/07 05:08:26;;;;;;;39.33;24.03;;;;;;;12.83;95.91;96025.22;5007213;28;20671;-74
2021/06/07 05:10:52;;;;;;;186.70;26.07;;;;;;;12.85;95.77;96018.06;4988662;28;20222;-74
2021/06/07 05:13:17;;;;;;;45.97;21.47;;;;;;;12.88;95.53;96016.94;5009823;28;20609;-73
2021/06/07 05:15:43;;;;;;;65.50;24.67;;;;;;;12.88;95.61;96016.94;5011615;28;20219;-76
2021/06/07 05:18:09;;;;;;;68.77;22.77;;;;;;;12.89;95.24;96014.19;5008142;28;20321;-74
2021/06/07 05:20:34;;;;;;;112.17;24.73;;;;;;;12.87;95.26;96012.69;5010880;28;20187;-75
2021/06/07 05:23:00;;;;;;;93.90;25.33;;;;;;;12.90;95.45;96009.81;5007764;28;20634;-75
2021/06/07 05:25:27;;;;;;;116.73;24.67;;;;;;;12.91;95.51;96017.47;5005264;28;20199;-75
2021/06/07 05:27:53;;;;;;;159.23;26.87;;;;;;;12.94;95.34;96011.13;4996458;28;20178;-75
2021/06/07 05:30:20;;;;;;;92.80;24.90;;;;;;;12.95;95.31;96017.97;5013912;28;20190;-75
2021/06/07 05:32:46;;;;;;;260.07;30.80;;;;;;;12.99;95.33;96016.72;5013729;28;20202;-74
2021/06/07 05:35:12;;;;;;;422.53;36.23;;;;;;;12.91;95.34;96014.88;5013859;28;20203;-74
2021/06/07 05:37:38;;;;;;;182.87;29.20;;;;;;;12.92;95.58;96013.91;5013999;28;20218;-75
2021/06/07 05:40:06;;;;;;;227.87;31.47;;;;;;;12.94;95.75;96011.13;5012780;28;20272;-75
2021/06/07 05:42:31;;;;;;;467.80;37.10;;;;;;;12.94;95.53;96016.34;5013575;28;20214;-75
2021/06/07 05:44:56;;;;;;;370.67;34.93;;;;;;;12.95;95.57;96012.75;5013765;28;20273;-74
2021/06/07 05:47:22;;;;;;;76.13;28.33;;;;;;;13.01;95.70;96017.38;5014949;28;20179;-74
2021/06/07 05:49:47;;;;;;;200.77;28.57;;;;;;;12.99;95.84;96017.53;5012681;28;20262;-73
2021/06/07 05:52:12;;;;;;;465.27;40.57;;;;;;;12.98;95.96;96021.09;5012444;28;20237;-75
2021/06/07 05:54:39;;;;;;;117.30;26.17;;;;;;;13.13;95.32;96028.38;5014939;28;20203;-75
2021/06/07 05:57:06;;;;;;;581.93;45.40;;;;;;;13.04;95.26;96020.50;5013832;28;20242;-76
2021/06/07 05:59:32;;;;;;;160.50;29.13;;;;;;;13.13;95.04;96028.38;5013162;28;20321;-75
2021/06/07 06:01:57;;;;;;;332.10;35.20;;;;;;;13.08;95.37;96033.25;5011280;28;20249;-74
2021/06/07 06:04:23;;;;;;;121.17;28.53;;;;;;;13.07;95.52;96032.41;5014784;28;20191;-75
2021/06/07 06:06:49;;;;;;;568.13;45.67;;;;;;;12.96;95.75;96030.84;5013922;28;20245;-73
2021/06/07 06:09:14;;;;;;;376.93;35.50;;;;;;;13.05;95.80;96042.19;5014927;28;20209;-74
2021/06/07 06:11:41;;;;;;;379.57;36.10;;;;;;;13.10;95.64;96037.34;5012423;28;20249;-75
2021/06/07 06:14:07;;;;;;;574.13;44.97;;;;;;;13.04;95.72;96030.94;5014008;28;20218;-75
2021/06/07 06:16:32;;;;;;;77.60;25.70;;;;;;;13.16;95.68;96039.31;5013546;28;20215;-75
2021/06/07 06:18:57;;;;;;;379.37;34.03;;;;;;;13.17;95.59;96037.56;5014566;28;20654;-74
2021/06/07 06:21:26;;;;;;;160.47;28.33;;;;;;;13.21;95.51;96044.94;4996162;28;20234;-76
2021/06/07 06:23:52;;;;;;;315.97;32.33;;;;;;;13.15;95.65;96049.91;4997413;28;20277;-75
2021/06/07 06:26:18;;;;;;;273.60;31.47;;;;;;;13.31;95.16;96044.84;5013515;28;20250;-75
2021/06/07 06:28:43;;;;;;;254.87;30.83;;;;;;;13.32;95.04;96042.09;5013350;28;20274;-75
2021/06/07 06:31:08;;;;;;;124.13;23.87;;;;;;;13.39;94.95;96044.09;5011859;28;20789;-75
2021/06/07 06:33:34;;;;;;;384.67;34.23;;;;;;;13.31;94.88;96044.84;5013110;28;20222;-75
2021/06/07 06:35:59;;;;;;;501.17;38.83;;;;;;;13.30;95.15;96046.63;5014332;28;20234;-73
2021/06/07 06:38:25;;;;;;;386.57;31.87;;;;;;;13.35;95.18;96043.59;5012546;28;20238;-73
2021/06/07 06:40:52;;;;;;;241.20;28.57;;;;;;;13.33;94.72;96046.31;5012990;28;20218;-74
2021/06/07 06:43:18;;;;;;;229.77;26.37;;;;;;;13.38;94.94;96039.84;4994660;28;20278;-74
2021/06/07 06:45:43;;;;;;;253.50;27.13;;;;;;;13.36;95.18;96049.63;5013201;28;20226;-73
2021/06/07 06:48:09;;;;;;;532.10;40.83;;;;;;;13.36;95.25;96049.63;5010451;28;20191;-74
2021/06/07 06:50:36;;;;;;;36.13;17.70;;;;;;;13.48;95.00;96043.19;5032431;28;20194;-74
2021/06/07 06:53:03;;;;;;;208.57;23.87;;;;;;;13.48;94.72;96054.44;5039349;28;20218;-74
2021/06/07 06:55:29;;;;;;;173.33;21.67;;;;;;;13.53;94.59;96049.59;5012391;28;20207;-75
2021/06/07 06:57:54;;;;;;;117.17;18.60;;;;;;;13.56;94.45;96054.47;5013049;28;20182;-74
2021/06/07 07:00:20;;;;;;;80.47;18.77;;;;;;;13.54;94.55;96050.41;5012562;28;20544;-75
2021/06/07 07:02:45;;;;;;;287.57;25.50;;;;;;;13.50;94.82;96052.47;5013634;28;20180;-75
2021/06/07 07:05:11;;;;;;;105.43;17.90;;;;;;;13.57;94.79;96057.91;5011365;28;20221;-75
2021/06/07 07:07:36;;;;;;;257.60;23.97;;;;;;;13.54;94.42;96060.84;5012174;28;20187;-76
2021/06/07 07:10:03;;;;;;;205.90;19.30;;;;;;;13.49;94.50;96055.25;5013732;28;20643;-75
2021/06/07 07:12:29;;;;;;;369.33;26.00;;;;;;;13.51;94.06;96061.13;4995732;28;20187;-75
2021/06/07 07:14:54;;;;;;;49.07;14.90;;;;;;;13.60;94.41;96057.59;5011060;28;20289;-76
2021/06/07 07:17:19;;;;;;;76.50;16.03;;;;;;;13.64;94.58;96061.56;5012179;28;20797;-76
2021/06/07 07:19:46;;;;;;;117.80;15.13;;;;;;;13.63;94.27;96065.13;5012530;28;20654;-76
2021/06/07 07:22:13;;;;;;;17.50;11.30;;;;;;;13.72;94.19;96069.44;5012218;28;20183;-75
2021/06/07 07:24:43;;;;;;;52.73;11.80;;;;;;;13.66;94.19;96070.03;5010462;28;20268;-75
2021/06/07 07:27:08;;;;;;;121.10;13.73;;;;;;;13.59;94.29;96069.81;5012212;28;20182;-76
2021/06/07 07:29:33;;;;;;;131.97;14.40;;;;;;;13.58;94.26;96067.38;5012353;28;20187;-75
2021/06/07 07:31:58;;;;;;;18.23;9.67;;;;;;;13.67;94.06;96076.88;5012065;28;20191;-75
2021/06/07 07:34:24;;;;;;;15.23;9.70;;;;;;;13.67;93.93;96071.66;5012273;28;20206;-75
2021/06/07 07:36:49;;;;;;;153.23;14.20;;;;;;;13.59;94.00;96071.63;5011092;28;20211;-75
2021/06/07 07:39:14;;;;;;;95.77;12.80;;;;;;;13.73;93.87;96071.06;5012796;28;20266;-78
2021/06/07 07:41:40;;;;;;;153.83;14.40;;;;;;;13.76;93.48;96068.13;5011818;28;20175;-75
2021/06/07 07:44:05;;;;;;;124.77;12.63;;;;;;;13.84;93.57;96069.97;5012358;28;20202;-75
2021/06/07 07:46:31;;;;;;;18.37;8.20;;;;;;;13.97;93.10;96066.97;5011057;28;20187;-75
2021/06/07 07:48:56;;;;;;;80.87;10.23;;;;;;;13.98;92.98;96072.03;5012076;28;20714;-77
2021/06/07 07:51:22;;;;;;;32.43;8.90;;;;;;;14.06;92.69;96077.28;5011799;28;20179;-75
2021/06/07 07:53:47;;;;;;;8.20;6.70;;;;;;;14.23;92.66;96069.53;5012645;28;20183;-74
2021/06/07 07:56:12;;;;;;;6.50;5.80;;;;;;;14.10;91.93;96072.56;5012530;28;20211;-74
2021/06/07 07:58:38;;;;;;;7.27;6.33;;;;;;;14.30;91.69;96065.28;5010651;28;20191;-75
2021/06/07 08:01:04;;;;;;;8.03;5.97;;;;;;;14.29;91.09;96074.91;5012656;28;20183;-75
2021/06/07 08:03:29;;;;;;;7.73;5.37;;;;;;;14.23;90.24;96067.72;5011785;28;20714;-74
2021/06/07 08:05:55;;;;;;;20.10;6.53;;;;;;;14.11;91.20;96068.97;4994387;28;20379;-73
2021/06/07 08:08:20;;;;;;;6.70;6.10;;;;;;;14.28;92.08;96064.63;5011185;28;20194;-75
2021/06/07 08:10:46;;;;;;;12.40;6.30;;;;;;;14.21;91.47;96069.66;5010977;28;20557;-75
2021/06/07 08:13:11;;;;;;;7.53;5.87;;;;;;;14.12;91.69;96070.59;5012727;28;20187;-75
2021/06/07 08:15:36;;;;;;;14.93;6.27;;;;;;;14.16;91.40;96070.16;5011547;28;20207;-73
2021/06/07 08:18:03;;;;;;;6.67;5.87;;;;;;;14.29;91.57;96066.25;5010230;28;20565;-74
2021/06/07 08:20:29;;;;;;;24.07;9.33;;;;;;;14.22;91.61;96066.06;5010949;28;20612;-75
2021/06/07 08:22:55;;;;;;;17.67;8.53;;;;;;;14.22;91.56;96068.69;5011289;28;20251;-75
2021/06/07 08:25:24;;;;;;;8.57;7.77;;;;;;;14.24;91.69;96065.94;5011170;28;20206;-74
2021/06/07 08:27:50;;;;;;;7.90;7.20;;;;;;;14.32;91.39;96072.00;5007282;28;20191;-73
2021/06/07 08:30:16;;;;;;;7.73;6.93;;;;;;;14.42;91.08;96067.47;5001973;28;20209;-73
2021/06/07 08:32:41;;;;;;;13.03;6.97;;;;;;;14.54;91.07;96075.03;5004828;28;20203;-73
2021/06/07 08:35:08;;;;;;;30.37;8.30;;;;;;;14.47;90.20;96064.41;5009640;28;20293;-73
2021/06/07 08:37:34;;;;;;;7.97;7.17;;;;;;;14.56;90.50;96071.28;5008970;28;20202;-73
2021/06/07 08:40:00;;;;;;;18.57;8.33;;;;;;;14.56;90.97;96067.84;4988777;28;20684;-73
2021/06/07 08:42:25;;;;;;;7.17;6.47;;;;;;;14.67;90.69;96072.81;5009875;28;20194;-75
2021/06/07 08:44:51;;;;;;;6.77;6.10;;;;;;;14.66;89.80;96071.97;4998763;28;20713;-74
2021/06/07 08:47:16;;;;;;;8.73;6.53;;;;;;;14.85;89.55;96068.25;5028274;28;20178;-75
2021/06/07 08:49:41;;;;;;;24.23;7.90;;;;;;;14.39;89.54;96073.00;5025943;28;20182;-75
2021/06/07 08:52:07;;;;;;;51.77;9.30;;;;;;;14.47;89.72;96084.47;5008124;28;20191;-74
2021/06/07 08:54:33;;;;;;;8.80;8.00;;;;;;;14.54;90.18;96085.50;5009632;28;20968;-75
2021/06/07 08:56:59;;;;;;;8.53;7.73;;;;;;;14.62;90.29;96088.13;5008684;28;20569;-74
2021/06/07 08:59:24;;;;;;;9.73;8.73;;;;;;;14.66;90.44;96089.44;5009105;28;20187;-75
2021/06/07 09:01:52;;;;;;;8.50;7.70;;;;;;;14.70;90.18;96088.16;5007225;28;20195;-74
2021/06/07 09:04:19;;;;;;;8.67;7.87;;;;;;;14.76;90.01;96092.75;5008902;28;20241;-76
2021/06/07 09:06:46;;;;;;;20.43;8.03;;;;;;;15.00;89.53;96087.53;5009010;28;20175;-76
2021/06/07 09:09:14;;;;;;;19.30;8.40;;;;;;;14.99;89.16;96083.28;5010297;28;20186;-75
2021/06/07 09:11:45;;;;;;;7.68;7.00;;;;;;;15.18;88.87;96083.97;5008372;28;20598;-76
2021/06/07 09:14:23;;;;;;;39.25;8.80;;;;;;;15.04;88.67;96089.84;5010493;28;20231;-76
2021/06/07 09:16:48;;;;;;;8.73;6.93;;;;;;;15.16;88.13;96085.94;5010386;28;20269;-77
2021/06/07 09:19:28;;;;;;;16.97;8.17;;;;;;;15.06;88.46;96085.28;4994280;28;20646;-76
2021/06/07 09:21:56;;;;;;;7.90;7.20;;;;;;;15.00;88.72;96081.50;5008407;28;20220;-74
2021/06/07 09:24:21;;;;;;;8.53;7.07;;;;;;;14.99;89.18;96085.09;5010434;28;20191;-76
2021/06/07 09:26:48;;;;;;;23.92;8.45;;;;;;;14.89;88.46;96085.25;4994124;28;20261;-76
2021/06/07 09:29:19;;;;;;;7.53;6.80;;;;;;;14.96;89.34;96090.66;5010499;28;20182;-76
2021/06/07 09:31:50;;;;;;;11.97;7.93;;;;;;;14.91;88.84;96083.28;5013213;28;20598;-76
2021/06/07 09:34:23;;;;;;;60.70;10.75;;;;;;;15.06;89.08;96087.88;5011321;28;20210;-75
2021/06/07 09:36:49;;;;;;;147.57;14.35;;;;;;;14.81;88.96;96090.47;5008648;28;20706;-75
2021/06/07 09:39:16;;;;;;;22.98;9.88;;;;;;;14.86;89.08;96085.59;5011490;28;20187;-73
2021/06/07 09:41:51;;;;;;;17.90;10.67;;;;;;;14.84;89.37;96092.78;5011216;28;20187;-74
2021/06/07 09:44:39;;;;;;;10.83;9.30;;;;;;;15.08;89.01;96088.53;5026165;28;20580;-75
2021/06/07 09:47:28;;;;;;;42.27;11.83;;;;;;;15.09;88.26;96096.22;5025090;28;20175;-75
2021/06/07 09:50:05;;;;;;;129.27;14.27;;;;;;;15.11;88.32;96098.69;5011324;28;20191;-76
2021/06/07 09:52:44;;;;;;;143.07;16.48;;;;;;;14.67;89.43;96099.75;5009517;28;20194;-75
2021/06/07 09:55:10;;;;;;;11.90;10.70;;;;;;;14.80;90.05;96106.31;5005200;28;20238;-75
2021/06/07 09:58:05;;;;;;;435.47;27.57;;;;;;;14.72;90.09;96099.25;5008871;28;20265;-74
2021/06/07 10:00:42;;;;;;;19.93;12.70;;;;;;;14.83;90.10;96104.19;5004397;28;20560;-75
2021/06/07 10:03:26;;;;;;;19.37;12.43;;;;;;;14.90;90.14;96094.72;5009469;28;20175;-74
2021/06/07 10:05:53;;;;;;;80.67;14.00;;;;;;;15.10;89.02;96097.03;5035869;28;20199;-74
2021/06/07 10:08:19;;;;;;;81.83;14.97;;;;;;;15.22;88.85;96099.19;5010889;28;20681;-74
2021/06/07 10:10:45;;;;;;;62.17;13.53;;;;;;;15.40;88.09;96099.03;5009603;28;20211;-73
2021/06/07 10:13:12;;;;;;;17.17;13.55;;;;;;;15.49;88.27;96097.22;5010801;28;20222;-74
2021/06/07 10:15:38;;;;;;;52.58;13.55;;;;;;;15.43;87.95;96103.91;5011683;28;20311;-74
2021/06/07 10:18:15;;;;;;;12.65;11.35;;;;;;;15.62;87.49;96096.75;5012623;28;20173;-74
2021/06/07 10:20:50;;;;;;;14.80;12.95;;;;;;;15.74;86.74;96100.69;4993881;28;20171;-75
2021/06/07 10:23:27;;;;;;;14.30;12.80;;;;;;;15.96;85.40;96105.19;5031443;28;20174;-74
2021/06/07 10:25:55;;;;;;;14.80;13.25;;;;;;;16.07;83.92;96096.97;5011972;28;20199;-74
2021/06/07 10:28:29;;;;;;;14.10;12.70;;;;;;;16.23;83.82;96100.53;5012687;28;20331;-74
2021/06/07 10:30:56;;;;;;;17.33;13.20;;;;;;;16.23;83.67;96100.53;5011384;28;20195;-74
2021/06/07 10:33:37;;;;;;;11.82;10.70;;;;;;;15.90;85.50;96100.63;5013150;28;20179;-75
2021/06/07 10:36:21;;;;;;;13.00;11.80;;;;;;;16.01;85.91;96094.25;5014248;28;20686;-74
2021/06/07 10:38:50;;;;;;;28.33;11.73;;;;;;;15.99;85.74;96091.78;5012240;28;20194;-74
2021/06/07 10:41:25;;;;;;;135.38;16.02;;;;;;;15.95;85.87;96100.94;5012661;28;20205;-75
2021/06/07 10:43:59;;;;;;;93.95;15.65;;;;;;;15.52;86.59;96094.28;5013097;28;20179;-75
2021/06/07 10:46:34;;;;;;;16.33;14.57;;;;;;;15.85;86.30;96105.56;5012651;28;20545;-74
2021/06/07 10:49:01;;;;;;;14.85;13.40;;;;;;;16.03;86.26;96110.59;5012882;28;20191;-74
2021/06/07 10:51:29;;;;;;;15.10;13.60;;;;;;;16.13;85.46;96112.03;5012728;28;20175;-73
2021/06/07 10:54:32;;;;;;;14.90;13.40;;;;;;;16.53;83.58;96112.91;5012869;28;20233;-74
2021/06/07 10:57:31;;;;;;;18.55;15.27;;;;;;;16.47;82.43;96110.13;5012732;28;20211;-74
2021/06/07 11:00:12;;;;;;;19.30;16.27;;;;;;;16.81;83.26;96110.66;5011817;28;20240;-74
2021/06/07 11:02:40;;;;;;;18.45;14.25;;;;;;;16.87;80.60;96111.75;5008779;28;20179;-75
2021/06/07 11:05:19;;;;;;;15.35;13.77;;;;;;;16.78;81.58;96113.59;5012474;28;20195;-75
2021/06/07 11:07:59;;;;;;;13.63;12.30;;;;;;;16.84;82.01;96112.09;5013876;28;20249;-76
2021/06/07 11:10:34;;;;;;;14.10;12.63;;;;;;;16.58;83.09;96109.75;5011250;28;20240;-75
2021/06/07 11:13:05;;;;;;;17.02;12.30;;;;;;;16.40;84.35;96112.59;5013836;28;20179;-75
2021/06/07 11:15:45;;;;;;;40.55;12.05;;;;;;;16.27;83.50;96104.47;5013099;28;20705;-74
2021/06/07 11:18:30;;;;;;;57.33;14.18;;;;;;;15.98;85.14;96105.03;5012134;28;20614;-75